MSY603 ZPDL-ZPDL
Flight info
| Callsign | MSY603 |
|---|---|
| Flight time | 0h 13m |
| Altitude | 13000 |
| Route | / |
| Aircraft | DA40/L-E/S |
Departure
| Time | 2026-05-08 03:39 |
|---|---|
| Airport | Dali Fengyi Airport (ZPDL) |
Arrival
| Time | 2026-05-08 03:52 |
|---|---|
| Airport | Dali Fengyi Airport (ZPDL) |
| Time | Latitude | Longitude | Altitude | Speed | Heading |
|---|---|---|---|---|---|
| 2026-05-08 03:24 | 25.64550 | 100.32229 | 7076 ft | 0 kts | 78° |
| 2026-05-08 03:29 | 25.64550 | 100.32228 | 7076 ft | 0 kts | 78° |
| 2026-05-08 03:35 | 25.64550 | 100.32229 | 7076 ft | 0 kts | 80° |
| 2026-05-08 03:35 | 25.64542 | 100.32236 | 7079 ft | 5 kts | 196° |
| 2026-05-08 03:35 | 25.64520 | 100.32188 | 7073 ft | 9 kts | 238° |
| 2026-05-08 03:36 | 25.64451 | 100.32179 | 7072 ft | 13 kts | 168° |
| 2026-05-08 03:36 | 25.64394 | 100.32144 | 7072 ft | 10 kts | 258° |
| 2026-05-08 03:36 | 25.64392 | 100.32134 | 7072 ft | 0 kts | 257° |
| 2026-05-08 03:37 | 25.64381 | 100.32078 | 7072 ft | 10 kts | 257° |
| 2026-05-08 03:37 | 25.64396 | 100.32016 | 7072 ft | 8 kts | 333° |
| 2026-05-08 03:37 | 25.64535 | 100.31982 | 7074 ft | 41 kts | 349° |
| 2026-05-08 03:37 | 25.64930 | 100.31894 | 7072 ft | 75 kts | 351° |
| 2026-05-08 03:38 | 25.65505 | 100.31754 | 7136 ft | 88 kts | 344° |
| 2026-05-08 03:38 | 25.66135 | 100.31630 | 7226 ft | 95 kts | 345° |
| 2026-05-08 03:38 | 25.66796 | 100.31521 | 7348 ft | 96 kts | 349° |
| 2026-05-08 03:38 | 25.67473 | 100.31438 | 7464 ft | 100 kts | 353° |
| 2026-05-08 03:39 | 25.68156 | 100.31298 | 7633 ft | 99 kts | 329° |
| 2026-05-08 03:39 | 25.68505 | 100.30696 | 7745 ft | 92 kts | 271° |
| 2026-05-08 03:39 | 25.68363 | 100.30005 | 7850 ft | 95 kts | 237° |
| 2026-05-08 03:39 | 25.67843 | 100.29609 | 7976 ft | 95 kts | 191° |
| 2026-05-08 03:40 | 25.67191 | 100.29687 | 8144 ft | 98 kts | 168° |
| 2026-05-08 03:40 | 25.66490 | 100.29849 | 8298 ft | 99 kts | 173° |
| 2026-05-08 03:40 | 25.65823 | 100.29955 | 8447 ft | 101 kts | 174° |
| 2026-05-08 03:40 | 25.65087 | 100.30101 | 8574 ft | 106 kts | 172° |
| 2026-05-08 03:41 | 25.64387 | 100.30299 | 8801 ft | 103 kts | 168° |
| 2026-05-08 03:41 | 25.63706 | 100.30534 | 9047 ft | 103 kts | 165° |
| 2026-05-08 03:41 | 25.62972 | 100.30775 | 9162 ft | 112 kts | 169° |
| 2026-05-08 03:41 | 25.62270 | 100.31033 | 9402 ft | 105 kts | 166° |
| 2026-05-08 03:42 | 25.61567 | 100.31170 | 9543 ft | 104 kts | 182° |
| 2026-05-08 03:42 | 25.60837 | 100.31159 | 9626 ft | 108 kts | 194° |
| 2026-05-08 03:42 | 25.60114 | 100.30871 | 9663 ft | 112 kts | 207° |
| 2026-05-08 03:42 | 25.59363 | 100.30566 | 9717 ft | 120 kts | 195° |
| 2026-05-08 03:43 | 25.58511 | 100.30761 | 9750 ft | 134 kts | 149° |
| 2026-05-08 03:43 | 25.58036 | 100.31634 | 9751 ft | 140 kts | 105° |
| 2026-05-08 03:43 | 25.58138 | 100.32664 | 9632 ft | 132 kts | 65° |
| 2026-05-08 03:43 | 25.58808 | 100.33302 | 9345 ft | 133 kts | 13° |
| 2026-05-08 03:44 | 25.59690 | 100.33242 | 8968 ft | 127 kts | 335° |
| 2026-05-08 03:44 | 25.60153 | 100.32536 | 8665 ft | 115 kts | 272° |
| 2026-05-08 03:44 | 25.59964 | 100.31770 | 8623 ft | 91 kts | 232° |
| 2026-05-08 03:44 | 25.59375 | 100.31568 | 8499 ft | 105 kts | 167° |
| 2026-05-08 03:45 | 25.58901 | 100.32242 | 8632 ft | 128 kts | 99° |
| 2026-05-08 03:45 | 25.59261 | 100.33151 | 8473 ft | 131 kts | 40° |
| 2026-05-08 03:45 | 25.60044 | 100.33520 | 8285 ft | 118 kts | 355° |
| 2026-05-08 03:45 | 25.60715 | 100.33163 | 8020 ft | 107 kts | 315° |
| 2026-05-08 03:46 | 25.61321 | 100.32743 | 7864 ft | 99 kts | 342° |
| 2026-05-08 03:46 | 25.61988 | 100.32617 | 7710 ft | 96 kts | 342° |
| 2026-05-08 03:46 | 25.62616 | 100.32414 | 7478 ft | 92 kts | 340° |
| 2026-05-08 03:46 | 25.63240 | 100.32287 | 7273 ft | 88 kts | 347° |
| 2026-05-08 03:47 | 25.63801 | 100.32145 | 7128 ft | 81 kts | 338° |
| 2026-05-08 03:47 | 25.64340 | 100.32032 | 7084 ft | 73 kts | 347° |
| 2026-05-08 03:47 | 25.64806 | 100.31918 | 7074 ft | 66 kts | 349° |
| 2026-05-08 03:47 | 25.65289 | 100.31799 | 7063 ft | 83 kts | 335° |
| 2026-05-08 03:48 | 25.65857 | 100.31606 | 7185 ft | 86 kts | 328° |
| 2026-05-08 03:48 | 25.66003 | 100.31066 | 7234 ft | 90 kts | 241° |
| 2026-05-08 03:48 | 25.65663 | 100.30475 | 7355 ft | 91 kts | 222° |
| 2026-05-08 03:48 | 25.65003 | 100.30434 | 7345 ft | 106 kts | 160° |
| 2026-05-08 03:49 | 25.64314 | 100.30547 | 7476 ft | 104 kts | 172° |
| 2026-05-08 03:49 | 25.63636 | 100.30762 | 7666 ft | 99 kts | 166° |
| 2026-05-08 03:49 | 25.63084 | 100.31142 | 7655 ft | 102 kts | 111° |
| 2026-05-08 03:49 | 25.63165 | 100.31945 | 7594 ft | 107 kts | 70° |
| 2026-05-08 03:50 | 25.63621 | 100.32554 | 7542 ft | 103 kts | 18° |
| 2026-05-08 03:50 | 25.64228 | 100.32288 | 7443 ft | 95 kts | 333° |
| 2026-05-08 03:50 | 25.64732 | 100.32565 | 7452 ft | 95 kts | 79° |
| 2026-05-08 03:50 | 25.64539 | 100.33197 | 7443 ft | 88 kts | 146° |
| 2026-05-08 03:51 | 25.63954 | 100.33410 | 7428 ft | 91 kts | 162° |
| 2026-05-08 03:51 | 25.63330 | 100.33580 | 7398 ft | 94 kts | 198° |
| 2026-05-08 03:51 | 25.63134 | 100.32968 | 7402 ft | 98 kts | 287° |
| 2026-05-08 03:51 | 25.63499 | 100.32316 | 7297 ft | 103 kts | 309° |
| 2026-05-08 03:52 | 25.64154 | 100.32081 | 7156 ft | 90 kts | 347° |
| 2026-05-08 03:52 | 25.64686 | 100.31962 | 7075 ft | 66 kts | 333° |
| 2026-05-08 03:52 | 25.64947 | 100.31873 | 7072 ft | 0 kts | 342° |
| 2026-05-08 03:54 | 25.65068 | 100.31849 | 7069 ft | 40 kts | 346° |
| 2026-05-08 03:54 | 25.65466 | 100.31770 | 7058 ft | 74 kts | 345° |
| 2026-05-08 03:54 | 25.66032 | 100.31645 | 7147 ft | 85 kts | 345° |
| 2026-05-08 03:55 | 25.66598 | 100.31533 | 7327 ft | 82 kts | 349° |
| 2026-05-08 03:55 | 25.67160 | 100.31376 | 7434 ft | 88 kts | 337° |
| 2026-05-08 03:55 | 25.67696 | 100.31050 | 7602 ft | 86 kts | 303° |
| 2026-05-08 03:55 | 25.67819 | 100.30436 | 7706 ft | 87 kts | 258° |
| 2026-05-08 03:56 | 25.67685 | 100.29804 | 7887 ft | 83 kts | 234° |
| 2026-05-08 03:56 | 25.67105 | 100.29696 | 8031 ft | 94 kts | 173° |
| 2026-05-08 03:56 | 25.66437 | 100.29828 | 8180 ft | 101 kts | 174° |
| 2026-05-08 03:56 | 25.65740 | 100.29960 | 8369 ft | 105 kts | 179° |
| 2026-05-08 03:57 | 25.65008 | 100.30068 | 8545 ft | 109 kts | 175° |
| 2026-05-08 03:57 | 25.64228 | 100.30198 | 8647 ft | 116 kts | 177° |
| 2026-05-08 03:57 | 25.63422 | 100.30259 | 8751 ft | 112 kts | 179° |
| 2026-05-08 03:57 | 25.62662 | 100.30355 | 8919 ft | 110 kts | 181° |
| 2026-05-08 03:58 | 25.61884 | 100.30429 | 9068 ft | 115 kts | 181° |
| 2026-05-08 03:58 | 25.61106 | 100.30452 | 9192 ft | 110 kts | 188° |
| 2026-05-08 03:58 | 25.60341 | 100.30542 | 9304 ft | 113 kts | 157° |
| 2026-05-08 03:58 | 25.60077 | 100.31356 | 9198 ft | 129 kts | 74° |
| 2026-05-08 03:59 | 25.60663 | 100.32054 | 8910 ft | 125 kts | 19° |
| 2026-05-08 03:59 | 25.61473 | 100.32436 | 8537 ft | 127 kts | 12° |
| 2026-05-08 03:59 | 25.62306 | 100.32368 | 8529 ft | 121 kts | 347° |
| 2026-05-08 03:59 | 25.62871 | 100.32305 | 8639 ft | 121 kts | 347° |
| 2026-05-08 04:00 | 25.63693 | 100.32195 | 8842 ft | 123 kts | 347° |
| 2026-05-08 04:00 | 25.64719 | 100.31843 | 9007 ft | 113 kts | 310° |
| 2026-05-08 04:00 | 25.64906 | 100.31307 | 8991 ft | 114 kts | 263° |
| 2026-05-08 04:00 | 25.64537 | 100.30551 | 9017 ft | 119 kts | 217° |
| 2026-05-08 04:01 | 25.63717 | 100.30262 | 9069 ft | 126 kts | 196° |
| 2026-05-08 04:01 | 25.62839 | 100.30219 | 9139 ft | 127 kts | 172° |
| 2026-05-08 04:01 | 25.61973 | 100.30395 | 9277 ft | 126 kts | 176° |
| 2026-05-08 04:01 | 25.61100 | 100.30535 | 9274 ft | 129 kts | 182° |
| 2026-05-08 04:02 | 25.60239 | 100.30539 | 9443 ft | 113 kts | 183° |
| 2026-05-08 04:02 | 25.59507 | 100.30733 | 9486 ft | 117 kts | 143° |
| 2026-05-08 04:02 | 25.59262 | 100.31576 | 9292 ft | 121 kts | 80° |
| 2026-05-08 04:02 | 25.59634 | 100.32383 | 9088 ft | 117 kts | 40° |
| 2026-05-08 04:03 | 25.60374 | 100.32769 | 8722 ft | 123 kts | 9° |
| 2026-05-08 04:03 | 25.61925 | 100.32605 | 7971 ft | 106 kts | 353° |
| 2026-05-08 04:03 | 25.62625 | 100.32444 | 7664 ft | 100 kts | 348° |
| 2026-05-08 04:04 | 25.63290 | 100.32300 | 7384 ft | 92 kts | 341° |
| 2026-05-08 04:04 | 25.63891 | 100.32131 | 7117 ft | 86 kts | 341° |
| 2026-05-08 04:04 | 25.64411 | 100.32001 | 7072 ft | 61 kts | 342° |
| 2026-05-08 04:04 | 25.64670 | 100.31947 | 7074 ft | 22 kts | 343° |
| 2026-05-08 04:05 | 25.64766 | 100.32012 | 7074 ft | 21 kts | 75° |
| 2026-05-08 04:05 | 25.64732 | 100.32114 | 7075 ft | 17 kts | 166° |
| 2026-05-08 04:05 | 25.64620 | 100.32146 | 7074 ft | 10 kts | 127° |
| 2026-05-08 04:05 | 25.64630 | 100.32212 | 7075 ft | 0 kts | 77° |